Time;durP1;ratioP1;P1;durP2;ratioP2;P2;SDS_P1;SDS_P2;PMS_P1;PMS_P2;Temp;Humidity;BMP_temperature;BMP_pressure;BME280_temperature;BME280_humidity;BME280_pressure;Samples;Min_cycle;Max_cycle;Signal;HPM_P1;HPM_P2
2021/03/06 00:00:07;;;;;;;10.60;3.10;;;1.70;88.80;;;;;;5031743;28;20049;-74
2021/03/06 00:02:33;;;;;;;9.95;3.03;;;1.70;88.90;;;;;;5031104;28;20059;-74
2021/03/06 00:04:59;;;;;;;5.78;3.03;;;1.70;88.80;;;;;;5031439;28;20484;-74
2021/03/06 00:07:24;;;;;;;9.23;3.35;;;1.70;88.80;;;;;;5031496;28;20037;-74
2021/03/06 00:09:50;;;;;;;14.65;3.53;;;1.80;88.90;;;;;;5032159;28;20033;-74
2021/03/06 00:12:16;;;;;;;9.38;3.42;;;1.80;89.20;;;;;;5031363;28;20045;-74
2021/03/06 00:14:41;;;;;;;10.93;3.50;;;1.80;89.00;;;;;;5030020;28;20049;-74
2021/03/06 00:17:07;;;;;;;7.22;3.38;;;1.90;89.20;;;;;;5031603;28;20378;-74
2021/03/06 00:19:33;;;;;;;11.48;3.00;;;1.90;89.00;;;;;;5031508;28;20037;-74
2021/03/06 00:21:59;;;;;;;10.68;3.33;;;1.90;89.40;;;;;;5031929;28;20046;-74
2021/03/06 00:24:25;;;;;;;9.60;3.22;;;1.90;89.30;;;;;;5030461;28;20029;-74
2021/03/06 00:26:50;;;;;;;9.85;3.30;;;2.00;89.00;;;;;;5031060;28;20081;-74
2021/03/06 00:29:16;;;;;;;10.18;3.88;;;2.00;89.00;;;;;;5031615;28;20065;-74
2021/03/06 00:31:42;;;;;;;8.70;2.88;;;2.10;89.10;;;;;;5031123;28;20042;-74
2021/03/06 00:34:08;;;;;;;25.30;5.47;;;2.10;89.10;;;;;;5030927;28;20045;-74
2021/03/06 00:36:33;;;;;;;12.63;3.63;;;2.00;89.10;;;;;;5030961;28;20103;-74
2021/03/06 00:39:00;;;;;;;13.90;3.50;;;2.00;89.10;;;;;;5031120;28;20105;-74
2021/03/06 00:41:25;;;;;;;9.52;3.67;;;1.90;89.20;;;;;;5031294;28;20037;-74
2021/03/06 00:43:51;;;;;;;8.85;3.35;;;1.90;89.10;;;;;;5030402;28;20514;-74
2021/03/06 00:46:18;;;;;;;7.75;3.30;;;1.90;88.90;;;;;;5030700;28;20124;-74
2021/03/06 00:48:43;;;;;;;11.15;4.10;;;1.90;88.80;;;;;;5031191;28;20073;-74
2021/03/06 00:51:09;;;;;;;10.02;3.08;;;1.90;88.90;;;;;;5030698;28;20037;-74
2021/03/06 00:53:36;;;;;;;8.63;3.10;;;1.90;88.70;;;;;;5030467;28;20080;-74
2021/03/06 00:56:03;;;;;;;9.30;2.95;;;1.90;88.70;;;;;;5030589;28;20061;-74
2021/03/06 00:58:28;;;;;;;8.45;3.72;;;1.80;88.90;;;;;;5030571;28;20112;-74
2021/03/06 01:00:58;;;;;;;12.07;4.00;;;1.80;89.30;;;;;;5029803;28;20108;-74
2021/03/06 01:03:24;;;;;;;9.40;2.83;;;1.90;89.00;;;;;;5030413;28;20087;-74
2021/03/06 01:05:50;;;;;;;10.73;2.75;;;1.90;88.90;;;;;;5030460;28;20061;-74
2021/03/06 01:08:15;;;;;;;11.88;3.75;;;1.90;88.70;;;;;;5030657;28;20033;-74
2021/03/06 01:10:43;;;;;;;9.57;2.70;;;2.00;88.70;;;;;;5031330;28;20496;-74
2021/03/06 01:13:10;;;;;;;7.50;3.17;;;1.90;88.70;;;;;;5029359;28;20489;-74
2021/03/06 01:15:37;;;;;;;12.25;3.97;;;1.90;88.90;;;;;;5030316;28;20083;-74
2021/03/06 01:18:05;;;;;;;8.15;3.10;;;1.80;89.70;;;;;;5030538;28;20492;-74
2021/03/06 01:20:31;;;;;;;14.05;3.90;;;1.80;90.00;;;;;;5030986;28;20041;-74
2021/03/06 01:22:57;;;;;;;9.52;3.55;;;1.80;90.10;;;;;;5030185;28;20038;-74
2021/03/06 01:25:22;;;;;;;13.63;4.25;;;1.80;90.10;;;;;;5030532;28;20042;-74
2021/03/06 01:27:48;;;;;;;9.32;3.55;;;1.80;90.10;;;;;;5030284;28;20120;-74
2021/03/06 01:30:14;;;;;;;12.35;4.10;;;1.80;90.10;;;;;;5030164;28;20045;-74
2021/03/06 01:32:40;;;;;;;16.00;4.97;;;1.90;90.30;;;;;;5028825;28;20094;-72
2021/03/06 01:35:10;;;;;;;10.50;3.92;;;1.80;90.10;;;;;;5030384;28;20397;-72
2021/03/06 01:37:37;;;;;;;14.07;3.67;;;1.90;90.20;;;;;;5030779;28;20045;-73
2021/03/06 01:40:12;;;;;;;13.38;5.13;;;1.90;90.20;;;;;;5030155;28;20045;-74
2021/03/06 01:42:38;;;;;;;12.07;3.50;;;2.00;90.30;;;;;;5030320;28;20131;-74
2021/03/06 01:45:06;;;;;;;9.88;4.00;;;2.00;90.20;;;;;;5030493;28;20683;-74
2021/03/06 01:47:34;;;;;;;13.07;3.60;;;2.00;90.30;;;;;;5030642;28;20466;-74
2021/03/06 01:49:59;;;;;;;8.40;3.58;;;2.10;90.20;;;;;;5030142;28;20042;-74
2021/03/06 01:52:26;;;;;;;9.27;3.47;;;2.10;90.40;;;;;;5030236;28;20038;-74
2021/03/06 01:54:55;;;;;;;15.57;4.38;;;2.10;90.30;;;;;;5030297;28;20038;-74
2021/03/06 01:57:20;;;;;;;13.07;4.20;;;2.10;90.20;;;;;;5030611;28;20470;-74
2021/03/06 01:59:46;;;;;;;11.50;3.30;;;2.10;90.30;;;;;;5030377;28;20090;-74
2021/03/06 02:02:12;;;;;;;10.80;3.17;;;2.10;90.40;;;;;;5030617;28;20041;-74
2021/03/06 02:04:38;;;;;;;6.95;3.08;;;2.10;90.40;;;;;;5029901;28;20038;-74
2021/03/06 02:07:04;;;;;;;12.50;3.88;;;2.20;90.50;;;;;;5030403;28;20045;-74
2021/03/06 02:09:30;;;;;;;12.98;3.38;;;2.20;90.60;;;;;;5029561;28;20092;-74
2021/03/06 02:12:17;;;;;;;13.40;3.20;;;2.20;90.70;;;;;;5030082;28;20094;-74
2021/03/06 02:15:10;;;;;;;15.05;4.10;;;2.20;90.80;;;;;;5029343;28;20073;-74
2021/03/06 02:17:51;;;;;;;13.45;3.78;;;2.10;90.90;;;;;;5029557;28;20038;-74
2021/03/06 02:20:29;;;;;;;7.82;3.33;;;2.20;91.00;;;;;;5030252;28;20042;-74
2021/03/06 02:23:11;;;;;;;16.75;3.67;;;2.20;90.80;;;;;;5029826;28;20044;-74
2021/03/06 02:26:08;;;;;;;8.40;2.90;;;2.20;90.80;;;;;;5032466;28;20042;-74
2021/03/06 02:28:43;;;;;;;9.77;3.53;;;2.30;90.80;;;;;;5033158;28;20048;-74
2021/03/06 02:31:11;;;;;;;10.70;3.65;;;2.20;90.50;;;;;;5033361;28;20034;-74
2021/03/06 02:33:40;;;;;;;10.38;3.60;;;2.20;90.80;;;;;;5032420;28;20069;-72
2021/03/06 02:36:11;;;;;;;9.95;2.92;;;2.20;90.70;;;;;;5032544;28;20038;-73
2021/03/06 02:38:40;;;;;;;8.43;3.13;;;2.30;90.80;;;;;;5032901;28;20381;-74
2021/03/06 02:41:10;;;;;;;12.45;3.35;;;2.30;90.70;;;;;;5032899;28;20042;-74
2021/03/06 02:43:36;;;;;;;9.07;2.95;;;2.40;90.70;;;;;;5032485;28;20038;-74
2021/03/06 02:46:06;;;;;;;10.68;3.58;;;2.30;90.60;;;;;;5032484;28;20117;-74
2021/03/06 02:48:34;;;;;;;10.68;3.60;;;2.30;90.50;;;;;;5033438;28;20045;-74
2021/03/06 02:50:59;;;;;;;8.98;3.33;;;2.40;90.60;;;;;;5032526;28;20080;-74
2021/03/06 02:53:25;;;;;;;11.70;3.10;;;2.40;90.70;;;;;;5032474;28;20069;-74
2021/03/06 02:55:51;;;;;;;9.57;3.33;;;2.40;90.50;;;;;;5032664;28;20082;-74
2021/03/06 02:58:31;;;;;;;6.30;3.22;;;2.40;90.50;;;;;;5033158;28;20049;-74
2021/03/06 03:01:11;;;;;;;11.60;3.55;;;2.40;90.50;;;;;;5032579;28;20053;-74
2021/03/06 03:03:55;;;;;;;10.73;3.00;;;2.40;90.60;;;;;;5032634;28;20098;-72
2021/03/06 03:06:37;;;;;;;10.00;2.95;;;2.40;90.60;;;;;;5032253;28;20037;-72
2021/03/06 03:09:10;;;;;;;9.82;3.47;;;2.40;90.90;;;;;;5032402;28;20124;-73
2021/03/06 03:11:56;;;;;;;11.05;2.83;;;2.40;90.50;;;;;;5032289;28;20506;-74
2021/03/06 03:14:28;;;;;;;8.18;2.50;;;2.40;90.60;;;;;;5032131;28;20503;-74
2021/03/06 03:17:02;;;;;;;10.68;3.92;;;2.40;90.50;;;;;;5032929;28;20071;-74
2021/03/06 03:19:34;;;;;;;12.10;3.20;;;2.40;90.60;;;;;;5032512;28;20037;-74
2021/03/06 03:22:04;;;;;;;8.43;2.78;;;2.40;90.60;;;;;;5032361;28;20042;-74
2021/03/06 03:24:35;;;;;;;6.15;3.10;;;2.40;90.70;;;;;;5032486;28;20038;-74
2021/03/06 03:27:08;;;;;;;8.63;3.22;;;2.40;90.60;;;;;;5032177;28;20083;-74
2021/03/06 03:29:35;;;;;;;10.33;2.97;;;2.40;90.40;;;;;;5032818;28;20173;-74
2021/03/06 03:32:02;;;;;;;7.93;3.03;;;2.50;90.50;;;;;;5032697;28;20112;-74
2021/03/06 03:34:29;;;;;;;12.18;3.40;;;2.50;90.50;;;;;;5031715;28;20063;-74
2021/03/06 03:36:55;;;;;;;14.23;3.00;;;2.50;90.40;;;;;;5031267;28;20038;-74
2021/03/06 03:39:21;;;;;;;8.05;3.40;;;2.50;90.50;;;;;;5032196;28;20087;-74
2021/03/06 03:41:47;;;;;;;8.93;2.97;;;2.50;90.50;;;;;;5032534;28;20069;-74
2021/03/06 03:44:15;;;;;;;10.80;4.20;;;2.50;90.50;;;;;;5031483;28;20044;-74
2021/03/06 03:46:42;;;;;;;11.27;2.83;;;2.50;90.50;;;;;;5031707;28;20437;-74
2021/03/06 03:49:17;;;;;;;7.30;2.70;;;2.50;90.50;;;;;;5031130;28;20064;-74
2021/03/06 03:51:43;;;;;;;12.15;2.95;;;2.60;90.60;;;;;;5032350;28;20037;-74
2021/03/06 03:54:09;;;;;;;8.43;3.50;;;2.60;90.40;;;;;;5031500;28;20075;-74
2021/03/06 03:56:35;;;;;;;8.98;2.63;;;2.60;90.40;;;;;;5032291;28;20042;-74
2021/03/06 03:59:01;;;;;;;8.77;2.78;;;2.60;90.40;;;;;;5031947;28;20044;-74
2021/03/06 04:01:27;;;;;;;7.85;3.08;;;2.70;90.40;;;;;;5031660;28;20038;-74
2021/03/06 04:03:52;;;;;;;7.45;2.65;;;2.60;90.20;;;;;;5031286;28;20078;-72
2021/03/06 04:06:18;;;;;;;9.65;2.70;;;2.70;90.30;;;;;;5031923;28;20090;-73
2021/03/06 04:08:43;;;;;;;12.13;2.65;;;2.70;90.30;;;;;;5031435;28;20101;-74
2021/03/06 04:11:09;;;;;;;9.00;3.13;;;2.70;90.30;;;;;;5032028;28;20339;-74
2021/03/06 04:13:35;;;;;;;8.57;3.33;;;2.70;90.30;;;;;;5031172;28;20512;-74
2021/03/06 04:16:01;;;;;;;8.93;2.58;;;2.70;90.30;;;;;;5032127;28;20493;-74
2021/03/06 04:18:26;;;;;;;7.75;2.75;;;2.70;90.60;;;;;;5031352;28;20390;-74
2021/03/06 04:20:52;;;;;;;11.30;3.13;;;2.70;90.20;;;;;;5030534;28;20079;-74
2021/03/06 04:23:17;;;;;;;9.80;2.70;;;2.70;90.20;;;;;;5031120;28;20033;-74
2021/03/06 04:25:43;;;;;;;12.38;2.63;;;2.70;90.20;;;;;;5031313;28;20466;-74
2021/03/06 04:28:10;;;;;;;9.45;3.00;;;2.70;90.30;;;;;;5031822;28;20045;-74
2021/03/06 04:30:36;;;;;;;6.45;2.80;;;2.70;90.30;;;;;;5031207;28;20082;-74
2021/03/06 04:33:01;;;;;;;6.53;2.78;;;2.70;90.30;;;;;;5031159;28;20046;-72
2021/03/06 04:35:27;;;;;;;10.77;2.67;;;2.80;90.40;;;;;;5031238;28;20044;-72
2021/03/06 04:37:53;;;;;;;8.63;2.38;;;2.80;90.30;;;;;;5031530;28;20474;-72
2021/03/06 04:40:18;;;;;;;11.57;3.03;;;2.80;90.20;;;;;;5031691;28;20133;-72
2021/03/06 04:42:44;;;;;;;5.53;2.05;;;2.80;90.20;;;;;;5031012;28;20038;-72
2021/03/06 04:45:10;;;;;;;7.28;2.70;;;2.80;90.20;;;;;;5030308;28;20389;-72
2021/03/06 04:47:43;;;;;;;13.95;2.63;;;2.80;90.20;;;;;;5030325;28;20037;-74
2021/03/06 04:50:11;;;;;;;6.68;2.80;;;2.90;90.20;;;;;;5031081;28;20107;-74
2021/03/06 04:52:37;;;;;;;7.93;2.20;;;3.00;90.30;;;;;;5030605;28;20037;-74
2021/03/06 04:55:04;;;;;;;9.38;2.65;;;2.90;90.10;;;;;;5030746;28;20117;-74
2021/03/06 04:57:29;;;;;;;12.13;3.25;;;2.90;90.20;;;;;;5031249;28;20390;-74
2021/03/06 04:59:55;;;;;;;8.30;2.80;;;2.90;90.20;;;;;;5031347;28;20080;-72
2021/03/06 05:02:21;;;;;;;7.30;2.40;;;2.90;90.20;;;;;;5030784;28;20065;-72
2021/03/06 05:04:47;;;;;;;7.68;3.00;;;2.90;90.00;;;;;;5030304;28;20033;-72
2021/03/06 05:07:12;;;;;;;10.20;4.13;;;2.80;90.00;;;;;;5030881;28;20112;-72
2021/03/06 05:09:38;;;;;;;6.97;4.15;;;2.90;90.10;;;;;;5030216;28;20038;-72
2021/03/06 05:12:05;;;;;;;12.45;3.28;;;2.90;90.20;;;;;;5030572;28;20045;-74
2021/03/06 05:14:30;;;;;;;10.45;3.13;;;2.90;90.10;;;;;;5030104;28;20041;-74
2021/03/06 05:16:56;;;;;;;7.70;2.60;;;2.90;90.20;;;;;;5030490;28;20044;-72
2021/03/06 05:19:22;;;;;;;9.07;3.30;;;2.80;90.20;;;;;;5030549;28;20037;-73
2021/03/06 05:21:47;;;;;;;10.85;2.67;;;2.90;90.20;;;;;;5030580;28;20567;-74
2021/03/06 05:24:13;;;;;;;6.95;2.60;;;2.80;90.30;;;;;;5030061;28;20041;-74
2021/03/06 05:26:39;;;;;;;6.97;2.63;;;2.80;90.20;;;;;;5030283;28;20390;-74
2021/03/06 05:29:04;;;;;;;7.72;2.90;;;2.90;90.10;;;;;;5030219;28;20094;-74
2021/03/06 05:31:30;;;;;;;7.63;2.53;;;2.90;90.10;;;;;;5030417;28;20045;-74
2021/03/06 05:33:56;;;;;;;6.70;3.30;;;3.00;90.00;;;;;;5030024;28;20042;-72
2021/03/06 05:36:21;;;;;;;10.32;2.80;;;2.90;90.00;;;;;;5030244;28;20039;-72
2021/03/06 05:38:48;;;;;;;6.47;2.22;;;2.90;90.00;;;;;;5030246;28;20063;-70
2021/03/06 05:41:18;;;;;;;10.73;2.90;;;2.90;90.00;;;;;;5030557;28;20041;-70
2021/03/06 05:43:44;;;;;;;6.20;2.58;;;2.90;90.00;;;;;;5030000;28;20121;-72
2021/03/06 05:46:10;;;;;;;8.63;2.65;;;2.90;90.00;;;;;;5030489;28;20073;-73
2021/03/06 05:48:36;;;;;;;9.75;2.80;;;2.90;90.00;;;;;;5030187;28;20141;-73
2021/03/06 05:51:02;;;;;;;7.65;3.20;;;2.90;90.10;;;;;;5030265;28;20038;-73
2021/03/06 05:53:30;;;;;;;8.00;3.00;;;2.90;90.30;;;;;;5029604;28;20044;-73
2021/03/06 05:55:56;;;;;;;10.88;2.90;;;2.90;90.50;;;;;;5030122;28;20034;-72
2021/03/06 05:58:22;;;;;;;5.65;3.28;;;2.90;90.60;;;;;;5028853;28;20045;-73
2021/03/06 06:00:49;;;;;;;9.77;3.13;;;2.90;90.60;;;;;;5033326;28;20042;-73
2021/03/06 06:03:16;;;;;;;6.47;2.95;;;2.80;90.70;;;;;;5033014;28;20115;-73
2021/03/06 06:05:43;;;;;;;8.27;3.22;;;2.80;90.70;;;;;;5033692;28;20420;-73
2021/03/06 06:08:08;;;;;;;13.88;3.90;;;2.80;90.80;;;;;;5033523;28;20067;-73
2021/03/06 06:10:34;;;;;;;8.50;2.75;;;2.80;91.00;;;;;;5033231;28;20045;-73
2021/03/06 06:13:00;;;;;;;5.70;2.88;;;2.80;90.90;;;;;;5033235;28;20038;-73
2021/03/06 06:15:27;;;;;;;6.03;1.95;;;2.80;91.00;;;;;;5033000;28;20053;-72
2021/03/06 06:17:53;;;;;;;4.72;2.00;;;2.80;91.00;;;;;;5032427;28;20438;-73
2021/03/06 06:20:21;;;;;;;10.32;2.20;;;2.90;91.10;;;;;;5032724;28;20047;-73
2021/03/06 06:22:47;;;;;;;5.30;2.17;;;2.90;91.10;;;;;;5033305;28;20037;-73
2021/03/06 06:25:32;;;;;;;6.65;2.13;;;2.90;90.90;;;;;;5032997;28;20037;-72
2021/03/06 06:28:03;;;;;;;5.60;2.30;;;3.00;90.90;;;;;;5033611;28;20033;-72
2021/03/06 06:30:29;;;;;;;9.75;2.50;;;3.00;90.80;;;;;;5033770;28;20038;-72
2021/03/06 06:32:55;;;;;;;10.77;2.95;;;3.00;90.80;;;;;;5032833;28;20038;-72
2021/03/06 06:35:21;;;;;;;11.70;3.67;;;3.00;90.80;;;;;;5032782;27;20046;-72
2021/03/06 06:38:04;;;;;;;7.13;2.70;;;3.10;90.90;;;;;;5033737;28;20033;-72
2021/03/06 06:40:32;;;;;;;14.07;3.90;;;3.10;91.00;;;;;;5032031;28;20079;-72
2021/03/06 06:42:59;;;;;;;7.60;3.53;;;3.00;90.90;;;;;;5032739;28;20038;-72
2021/03/06 06:45:34;;;;;;;9.25;3.25;;;3.10;90.80;;;;;;5033404;28;20122;-72
2021/03/06 06:48:08;;;;;;;9.65;3.05;;;3.10;90.80;;;;;;5033405;28;20038;-72
2021/03/06 06:50:34;;;;;;;5.65;2.97;;;3.10;90.90;;;;;;5033242;28;20362;-72
2021/03/06 06:53:00;;;;;;;8.90;3.42;;;3.10;90.90;;;;;;5032477;28;20042;-72
2021/03/06 06:55:41;;;;;;;11.43;3.42;;;3.10;91.00;;;;;;5015124;28;20052;-72
2021/03/06 06:58:07;;;;;;;9.35;2.67;;;3.10;90.80;;;;;;5033219;28;20393;-72
2021/03/06 07:00:34;;;;;;;7.38;2.85;;;3.10;90.80;;;;;;5032572;28;20120;-72
2021/03/06 07:03:02;;;;;;;7.90;2.60;;;3.10;90.70;;;;;;5032402;28;20033;-72
2021/03/06 07:05:33;;;;;;;10.13;3.15;;;3.20;90.60;;;;;;5032681;28;20037;-72
2021/03/06 07:08:01;;;;;;;9.90;2.67;;;3.20;90.50;;;;;;5032473;28;20038;-72
2021/03/06 07:10:34;;;;;;;7.22;2.85;;;3.20;90.60;;;;;;5032080;28;20041;-72
2021/03/06 07:13:05;;;;;;;6.32;2.20;;;3.30;90.60;;;;;;5032037;28;20405;-72
2021/03/06 07:15:32;;;;;;;8.48;2.65;;;3.30;90.60;;;;;;5032278;28;20033;-72
2021/03/06 07:18:01;;;;;;;6.85;3.03;;;3.20;90.60;;;;;;5032569;28;20079;-72
2021/03/06 07:20:30;;;;;;;7.03;3.40;;;3.30;90.60;;;;;;5032534;28;20410;-72
2021/03/06 07:23:10;;;;;;;5.40;2.00;;;3.30;90.60;;;;;;5032151;28;20494;-72
2021/03/06 07:25:36;;;;;;;10.40;4.05;;;3.30;90.50;;;;;;5032365;28;20038;-72
2021/03/06 07:28:01;;;;;;;12.02;2.78;;;3.30;90.60;;;;;;5032239;28;20037;-72
2021/03/06 07:30:27;;;;;;;10.27;2.92;;;3.40;90.50;;;;;;5031197;28;20066;-72
2021/03/06 07:32:56;;;;;;;7.65;2.90;;;3.40;90.50;;;;;;5031948;28;20097;-73
2021/03/06 07:35:24;;;;;;;6.70;2.70;;;3.40;90.60;;;;;;5031999;28;20064;-72
2021/03/06 07:37:56;;;;;;;7.82;3.08;;;3.50;90.50;;;;;;5032606;28;20510;-72
2021/03/06 07:40:29;;;;;;;7.72;3.03;;;3.50;90.50;;;;;;5032738;28;20103;-71
2021/03/06 07:42:59;;;;;;;9.30;3.05;;;3.50;90.60;;;;;;5031937;28;20037;-72
2021/03/06 07:45:27;;;;;;;9.52;2.88;;;3.50;90.40;;;;;;5032149;28;20112;-72
2021/03/06 07:47:57;;;;;;;7.25;2.33;;;3.60;90.40;;;;;;5032066;28;20494;-72
2021/03/06 07:50:29;;;;;;;4.75;2.15;;;3.60;90.40;;;;;;5031799;28;20061;-72
2021/03/06 07:52:56;;;;;;;5.78;2.45;;;3.70;90.40;;;;;;5031541;28;20041;-72
2021/03/06 07:55:26;;;;;;;6.82;2.45;;;3.70;90.20;;;;;;5030488;28;20044;-72
2021/03/06 07:58:12;;;;;;;8.65;2.17;;;3.80;90.30;;;;;;5032109;28;20038;-71
2021/03/06 08:00:53;;;;;;;7.68;2.50;;;3.80;90.20;;;;;;5031768;28;20048;-72
2021/03/06 08:03:28;;;;;;;6.97;2.20;;;3.90;90.20;;;;;;5031774;28;20040;-72
2021/03/06 08:06:03;;;;;;;9.70;2.50;;;4.00;90.40;;;;;;5031968;28;20041;-72
2021/03/06 08:08:35;;;;;;;8.48;2.83;;;4.10;90.20;;;;;;5031626;28;20037;-72
2021/03/06 08:11:17;;;;;;;4.63;2.33;;;4.20;90.20;;;;;;5031960;28;20041;-72
2021/03/06 08:13:46;;;;;;;10.90;3.25;;;4.30;90.00;;;;;;5031357;28;20112;-72
2021/03/06 08:16:24;;;;;;;8.35;2.75;;;4.30;89.70;;;;;;5031630;28;20049;-72
2021/03/06 08:18:57;;;;;;;7.70;2.40;;;4.40;89.80;;;;;;5031958;28;20037;-72
2021/03/06 08:21:31;;;;;;;6.72;2.33;;;4.50;89.50;;;;;;5032312;28;20037;-72
2021/03/06 08:24:11;;;;;;;;;;;4.70;89.30;;;;;;5031476;28;20537;-72
2021/03/06 08:26:41;;;;;;;8.13;2.22;;;4.80;88.50;;;;;;5030131;28;19917;-72
2021/03/06 08:29:22;;;;;;;7.75;2.17;;;4.80;88.10;;;;;;5031678;28;20500;-72
2021/03/06 08:32:13;;;;;;;5.72;2.03;;;4.80;87.70;;;;;;5031390;28;20167;-72
2021/03/06 08:34:50;;;;;;;8.05;1.95;;;4.80;87.60;;;;;;5031114;28;20087;-72
2021/03/06 08:37:16;;;;;;;5.93;1.70;;;4.80;87.50;;;;;;5030835;28;20086;-72
2021/03/06 08:40:08;;;;;;;3.92;2.00;;;4.80;87.80;;;;;;5031431;28;20065;-72
2021/03/06 08:42:36;;;;;;;6.80;1.70;;;4.90;87.40;;;;;;5030799;28;20045;-72
2021/03/06 08:45:18;;;;;;;5.20;2.45;;;5.00;87.10;;;;;;5031335;28;20033;-72
2021/03/06 08:47:47;;;;;;;5.20;1.58;;;5.10;87.50;;;;;;5031171;28;20090;-72
2021/03/06 08:50:15;;;;;;;4.53;1.33;;;5.00;87.00;;;;;;5031210;28;20120;-71
2021/03/06 08:52:51;;;;;;;6.97;1.60;;;5.10;87.10;;;;;;5031180;28;20033;-72
2021/03/06 08:55:22;;;;;;;2.92;1.33;;;5.10;87.00;;;;;;5030896;28;20045;-72
2021/03/06 08:57:48;;;;;;;4.07;1.70;;;5.10;87.00;;;;;;5031256;28;20044;-72
2021/03/06 09:00:17;;;;;;;5.50;1.75;;;5.20;87.20;;;;;;5030757;28;20041;-72
2021/03/06 09:02:43;;;;;;;3.35;1.67;;;5.30;87.00;;;;;;5030780;28;20057;-69
2021/03/06 09:05:23;;;;;;;5.07;1.80;;;5.30;86.90;;;;;;5030393;27;20510;-75
2021/03/06 09:07:54;;;;;;;8.57;1.75;;;5.50;86.20;;;;;;5031245;28;20037;-74
2021/03/06 09:10:28;;;;;;;6.30;1.73;;;5.60;85.80;;;;;;5030775;28;20037;-75
2021/03/06 09:12:56;;;;;;;;;;;5.60;85.30;;;;;;5030886;28;20560;-73
2021/03/06 09:15:38;;;;;;;5.63;1.50;;;5.70;85.40;;;;;;5030626;28;19960;-74
2021/03/06 09:18:07;;;;;;;4.43;1.40;;;5.70;85.00;;;;;;5030423;28;20521;-74
2021/03/06 09:20:39;;;;;;;3.78;1.52;;;5.70;85.00;;;;;;5029389;28;20081;-74
2021/03/06 09:23:05;;;;;;;7.18;1.75;;;5.90;85.30;;;;;;5030005;28;20041;-74
2021/03/06 09:25:39;;;;;;;4.53;1.48;;;5.90;85.10;;;;;;5030409;28;20044;-74
2021/03/06 09:28:08;;;;;;;5.18;1.75;;;5.90;84.90;;;;;;5030476;28;20037;-73
2021/03/06 09:30:38;;;;;;;7.43;2.65;;;5.90;84.70;;;;;;5030382;28;20041;-73
2021/03/06 09:33:20;;;;;;;5.03;1.83;;;5.80;83.80;;;;;;5030056;28;20070;-73
2021/03/06 09:36:00;;;;;;;7.22;1.83;;;5.80;84.10;;;;;;5036542;28;20078;-70
2021/03/06 09:38:25;;;;;;;3.75;1.83;;;5.90;83.00;;;;;;5037487;28;20091;-71
2021/03/06 09:40:52;;;;;;;4.53;1.65;;;6.00;83.40;;;;;;5037399;28;20478;-71
2021/03/06 09:43:25;;;;;;;4.05;1.42;;;6.20;83.10;;;;;;5036910;28;20542;-70
2021/03/06 09:45:51;;;;;;;5.30;1.67;;;6.30;82.60;;;;;;5036775;28;20037;-71
2021/03/06 09:48:17;;;;;;;6.57;1.92;;;6.30;82.30;;;;;;5037068;28;20044;-71
2021/03/06 09:50:44;;;;;;;7.32;1.73;;;6.40;82.10;;;;;;5037032;28;20112;-72
2021/03/06 09:53:18;;;;;;;2.88;1.67;;;6.50;81.60;;;;;;5036463;28;20034;-72
2021/03/06 09:55:44;;;;;;;;;;;6.50;81.20;;;;;;5037284;28;20053;-72
2021/03/06 09:58:22;;;;;;;3.88;1.90;;;6.50;80.40;;;;;;5035255;28;19956;-72
2021/03/06 10:00:48;;;;;;;3.97;2.15;;;6.50;81.10;;;;;;5036699;28;20090;-72
2021/03/06 10:03:28;;;;;;;7.38;1.75;;;6.50;82.30;;;;;;5035356;28;20042;-72
2021/03/06 10:05:56;;;;;;;3.55;1.73;;;6.60;82.00;;;;;;5036293;28;20064;-71
2021/03/06 10:08:23;;;;;;;4.55;1.75;;;6.60;81.20;;;;;;5035902;27;20053;-72
2021/03/06 10:10:50;;;;;;;4.43;1.90;;;6.60;81.60;;;;;;5037173;28;20042;-72
2021/03/06 10:13:18;;;;;;;6.97;1.55;;;6.60;80.50;;;;;;5036366;28;20041;-72
2021/03/06 10:15:44;;;;;;;5.07;1.33;;;6.60;80.10;;;;;;5036440;28;20089;-72
2021/03/06 10:18:10;;;;;;;3.58;1.52;;;6.60;80.10;;;;;;5036537;28;20038;-72
2021/03/06 10:20:36;;;;;;;6.10;1.60;;;6.50;79.60;;;;;;5037156;28;20534;-72
2021/03/06 10:23:02;;;;;;;3.45;1.08;;;6.50;80.40;;;;;;5036159;27;20045;-72
2021/03/06 10:25:28;;;;;;;1.95;0.80;;;6.30;80.60;;;;;;5036546;28;20158;-72
2021/03/06 10:27:54;;;;;;;4.80;1.13;;;6.30;80.40;;;;;;5037179;28;20041;-72
2021/03/06 10:30:20;;;;;;;3.00;0.88;;;6.30;80.30;;;;;;5036120;28;20056;-72
2021/03/06 10:32:48;;;;;;;6.05;0.98;;;6.30;79.90;;;;;;5036044;28;20038;-73
2021/03/06 10:35:33;;;;;;;4.30;0.88;;;6.30;79.80;;;;;;5036165;28;20060;-73
2021/03/06 10:38:00;;;;;;;3.38;0.95;;;6.20;78.90;;;;;;5036342;28;20052;-73
2021/03/06 10:40:52;;;;;;;2.13;0.80;;;6.30;78.20;;;;;;5036366;28;20034;-72
2021/03/06 10:43:32;;;;;;;2.20;0.65;;;6.20;78.00;;;;;;5036316;28;20564;-72
2021/03/06 10:46:24;;;;;;;3.05;0.85;;;6.10;77.70;;;;;;5034607;28;20125;-72
2021/03/06 10:48:55;;;;;;;2.03;0.80;;;6.10;77.90;;;;;;5032468;28;20072;-71
2021/03/06 10:51:23;;;;;;;3.45;0.90;;;6.10;78.50;;;;;;5033465;28;20199;-72
2021/03/06 10:54:02;;;;;;;2.33;0.77;;;6.20;78.50;;;;;;5031337;28;20420;-72
2021/03/06 10:56:28;;;;;;;3.28;1.00;;;6.20;78.90;;;;;;5032826;28;20042;-72
2021/03/06 10:58:54;;;;;;;4.07;1.50;;;6.00;78.90;;;;;;5033335;28;20053;-71
2021/03/06 11:01:20;;;;;;;3.28;0.70;;;6.10;78.80;;;;;;5033024;28;20465;-71
2021/03/06 11:03:48;;;;;;;4.03;0.90;;;6.20;78.80;;;;;;5032234;28;20039;-72
2021/03/06 11:06:15;;;;;;;1.88;0.55;;;6.00;78.80;;;;;;5031694;28;20485;-72
2021/03/06 11:08:42;;;;;;;4.00;0.40;;;5.90;77.50;;;;;;5031404;28;20044;-70
2021/03/06 11:11:10;;;;;;;1.08;0.30;;;5.90;77.90;;;;;;5031950;28;20061;-70
2021/03/06 11:13:39;;;;;;;1.50;0.40;;;6.00;78.10;;;;;;5032577;28;20041;-70
2021/03/06 11:16:05;;;;;;;1.42;0.32;;;6.20;77.90;;;;;;5032194;28;20037;-70
2021/03/06 11:18:31;;;;;;;2.92;0.80;;;6.10;76.80;;;;;;5032579;28;20037;-71
2021/03/06 11:20:57;;;;;;;1.63;0.52;;;6.30;76.90;;;;;;5032837;28;20106;-71
2021/03/06 11:23:22;;;;;;;1.92;0.70;;;6.40;76.10;;;;;;5032196;28;20068;-71
2021/03/06 11:25:48;;;;;;;3.88;0.77;;;6.50;76.30;;;;;;5032252;28;20087;-71
2021/03/06 11:28:15;;;;;;;2.78;1.05;;;6.70;76.50;;;;;;5032844;28;20044;-71
2021/03/06 11:30:46;;;;;;;6.82;1.08;;;6.70;76.20;;;;;;5032502;28;20034;-72
2021/03/06 11:33:17;;;;;;;3.72;1.08;;;6.80;76.00;;;;;;5032219;28;20038;-72
2021/03/06 11:35:44;;;;;;;4.50;1.02;;;6.80;76.10;;;;;;5032180;28;20097;-72
2021/03/06 11:38:11;;;;;;;3.90;1.25;;;6.90;76.10;;;;;;5032049;28;20037;-71
2021/03/06 11:40:40;;;;;;;2.47;1.27;;;7.00;76.60;;;;;;5031287;28;20105;-71
2021/03/06 11:43:06;;;;;;;3.95;1.10;;;7.00;76.10;;;;;;5032158;28;20038;-72
2021/03/06 11:45:32;;;;;;;8.15;1.13;;;7.00;75.90;;;;;;5030690;28;20038;-72
2021/03/06 11:47:58;;;;;;;3.88;1.10;;;6.90;75.60;;;;;;5032575;28;20034;-72
2021/03/06 11:50:29;;;;;;;5.50;1.15;;;6.90;75.40;;;;;;5031804;28;20069;-72
2021/03/06 11:52:56;;;;;;;3.35;1.30;;;7.00;74.80;;;;;;5031209;28;20065;-72
2021/03/06 11:55:22;;;;;;;3.00;0.98;;;7.00;74.80;;;;;;5031772;28;20038;-72
2021/03/06 11:57:48;;;;;;;2.35;1.02;;;7.00;74.10;;;;;;5030938;28;20121;-72
2021/03/06 12:00:17;;;;;;;3.40;1.88;;;7.00;74.00;;;;;;5031563;28;20053;-72
2021/03/06 12:02:43;;;;;;;1.55;0.85;;;7.10;74.30;;;;;;5030723;28;20041;-72
2021/03/06 12:05:12;;;;;;;1.83;1.00;;;7.20;73.70;;;;;;5031600;28;20044;-72
2021/03/06 12:07:38;;;;;;;2.45;1.20;;;7.20;72.80;;;;;;5031753;28;20420;-72
2021/03/06 12:10:05;;;;;;;2.67;1.30;;;7.30;72.50;;;;;;5031890;28;20038;-72
2021/03/06 12:12:31;;;;;;;4.15;1.13;;;7.20;73.10;;;;;;5031948;28;20038;-73
2021/03/06 12:14:57;;;;;;;5.22;1.48;;;7.30;73.40;;;;;;5030597;28;20117;-72
2021/03/06 12:17:23;;;;;;;4.57;1.08;;;7.30;73.10;;;;;;5015149;28;20500;-73
2021/03/06 12:19:49;;;;;;;2.22;0.70;;;7.30;72.80;;;;;;5031213;28;20385;-73
2021/03/06 12:22:14;;;;;;;3.47;0.73;;;7.30;71.90;;;;;;5011666;28;20101;-73
2021/03/06 12:24:40;;;;;;;4.18;0.82;;;7.40;71.30;;;;;;5011328;28;20034;-73
2021/03/06 12:27:06;;;;;;;6.10;0.80;;;7.40;70.20;;;;;;5012100;28;20030;-72
2021/03/06 12:29:32;;;;;;;4.13;0.90;;;7.40;70.60;;;;;;5011887;28;20175;-71
2021/03/06 12:31:58;;;;;;;0.77;0.70;;;7.20;70.90;;;;;;5011571;28;20482;-72
2021/03/06 12:34:24;;;;;;;3.80;1.00;;;7.30;71.70;;;;;;5011542;28;20129;-71
2021/03/06 12:36:50;;;;;;;4.38;1.33;;;7.30;72.20;;;;;;5010619;28;20034;-71
2021/03/06 12:39:16;;;;;;;3.75;1.38;;;7.30;72.40;;;;;;5011003;28;20107;-71
2021/03/06 12:41:43;;;;;;;4.18;1.10;;;7.30;73.20;;;;;;5012063;28;20473;-71
2021/03/06 12:44:09;;;;;;;2.30;0.98;;;7.30;72.70;;;;;;5011151;28;20030;-71
2021/03/06 12:46:34;;;;;;;4.05;1.30;;;7.20;72.90;;;;;;5011253;28;20521;-71
2021/03/06 12:49:00;;;;;;;3.95;1.20;;;7.20;73.30;;;;;;5011721;28;20052;-71
2021/03/06 12:51:26;;;;;;;8.40;1.80;;;7.20;73.50;;;;;;5011618;28;20462;-72
2021/03/06 12:53:51;;;;;;;4.38;1.10;;;7.30;74.30;;;;;;5011719;28;20378;-72
2021/03/06 12:56:18;;;;;;;4.13;1.50;;;7.30;74.30;;;;;;5011282;28;20061;-72
2021/03/06 12:58:43;;;;;;;3.60;1.13;;;7.10;73.70;;;;;;5011887;28;20046;-72
2021/03/06 13:01:09;;;;;;;4.13;1.20;;;7.20;74.20;;;;;;5011010;28;20490;-72
2021/03/06 13:03:35;;;;;;;4.85;1.38;;;7.10;74.70;;;;;;5011171;28;20040;-72